createdAt,value
2019-03-28T00:01:51.696Z,99.90
2019-03-28T00:04:23.090Z,99.90
2019-03-28T00:06:54.543Z,99.90
2019-03-28T00:09:26.257Z,99.90
2019-03-28T00:11:57.759Z,99.90
2019-03-28T00:14:30.206Z,99.90
2019-03-28T00:17:01.676Z,99.90
2019-03-28T00:19:33.076Z,99.90
2019-03-28T00:22:05.826Z,99.90
2019-03-28T00:24:45.248Z,99.90
2019-03-28T00:27:16.950Z,99.90
2019-03-28T00:29:48.782Z,99.90
2019-03-28T00:32:20.176Z,99.90
2019-03-28T00:34:51.680Z,99.90
2019-03-28T00:37:23.410Z,99.90
2019-03-28T00:39:54.926Z,99.90
2019-03-28T00:42:26.333Z,99.90
2019-03-28T00:44:57.727Z,99.90
2019-03-28T00:47:29.120Z,99.90
2019-03-28T00:50:00.923Z,99.90
2019-03-28T00:52:32.358Z,99.90
2019-03-28T00:55:04.443Z,99.90
2019-03-28T00:57:36.203Z,99.90
2019-03-28T01:00:08.533Z,99.90
2019-03-28T01:02:40.369Z,99.90
2019-03-28T01:05:11.980Z,99.90
2019-03-28T01:07:43.899Z,99.90
2019-03-28T01:10:15.512Z,99.90
2019-03-28T01:12:46.991Z,99.90
2019-03-28T01:15:19.114Z,99.90
2019-03-28T01:17:50.521Z,99.90
2019-03-28T01:20:21.941Z,99.90
2019-03-28T01:22:53.428Z,99.90
2019-03-28T01:25:24.819Z,99.90
2019-03-28T01:27:56.916Z,99.90
2019-03-28T01:30:28.595Z,99.90
2019-03-28T01:33:00.042Z,1.00
2019-03-28T01:35:31.440Z,1.00
2019-03-28T01:38:04.009Z,1.00
2019-03-28T01:40:36.074Z,1.00
2019-03-28T01:43:07.437Z,1.00
2019-03-28T01:45:39.286Z,1.00
2019-03-28T01:48:10.671Z,52.50
2019-03-28T01:50:42.670Z,99.90
2019-03-28T01:53:14.705Z,99.90
2019-03-28T01:55:46.098Z,99.90
2019-03-28T01:58:17.513Z,99.90
2019-03-28T02:00:48.943Z,99.90
2019-03-28T02:03:20.407Z,99.90
2019-03-28T02:05:52.160Z,99.90
2019-03-28T02:08:24.980Z,99.90
2019-03-28T02:10:56.518Z,99.90
2019-03-28T02:13:27.935Z,1.00
2019-03-28T02:15:59.520Z,1.00
2019-03-28T02:18:30.934Z,1.00
2019-03-28T02:21:02.728Z,1.00
2019-03-28T02:23:35.175Z,1.00
2019-03-28T02:26:06.554Z,59.70
2019-03-28T02:28:37.975Z,99.90
2019-03-28T02:31:10.098Z,99.90
2019-03-28T02:33:41.498Z,1.00
2019-03-28T02:36:13.202Z,1.00
2019-03-28T02:38:44.600Z,1.00
2019-03-28T02:41:15.999Z,99.90
2019-03-28T02:43:47.434Z,99.90
2019-03-28T02:46:18.832Z,41.30
2019-03-28T02:48:50.225Z,1.00
2019-03-28T02:51:21.621Z,1.00
2019-03-28T02:53:53.186Z,1.00
2019-03-28T02:56:24.675Z,1.00
2019-03-28T02:58:56.057Z,1.00
2019-03-28T03:01:30.319Z,99.90
2019-03-28T03:04:00.673Z,1.00
2019-03-28T03:06:32.116Z,1.00
2019-03-28T03:09:04.308Z,24.00
2019-03-28T03:11:36.014Z,91.40
2019-03-28T03:14:08.171Z,96.90
2019-03-28T03:16:39.637Z,1.00
2019-03-28T03:19:11.404Z,99.90
2019-03-28T03:21:43.192Z,99.90
2019-03-28T03:24:14.569Z,99.90
2019-03-28T03:26:46.151Z,99.90
2019-03-28T03:29:17.929Z,99.90
2019-03-28T03:31:49.371Z,99.90
2019-03-28T03:34:20.782Z,1.00
2019-03-28T03:36:52.192Z,99.90
2019-03-28T03:39:23.594Z,99.90
2019-03-28T03:41:55.050Z,1.00
2019-03-28T03:44:26.687Z,99.90
2019-03-28T03:46:58.149Z,99.90
2019-03-28T03:49:30.672Z,99.90
2019-03-28T03:52:02.942Z,99.90
2019-03-28T03:54:34.318Z,1.00
2019-03-28T03:57:05.702Z,1.00
2019-03-28T03:59:37.747Z,99.90
2019-03-28T04:02:09.307Z,99.90
2019-03-28T04:04:41.720Z,99.90
2019-03-28T04:07:13.086Z,1.00
2019-03-28T04:09:44.843Z,59.90
2019-03-28T04:12:16.228Z,99.90
2019-03-28T04:14:47.732Z,15.90
2019-03-28T04:17:19.118Z,99.90
2019-03-28T04:19:50.595Z,1.00
2019-03-28T04:22:22.395Z,99.90
2019-03-28T04:24:55.906Z,99.90
2019-03-28T04:27:27.299Z,75.30
2019-03-28T04:29:59.188Z,99.90
2019-03-28T04:32:30.558Z,99.90
2019-03-28T04:35:02.727Z,99.90
2019-03-28T04:37:34.742Z,99.90
2019-03-28T04:40:08.506Z,99.90
2019-03-28T04:42:40.732Z,1.00
2019-03-28T04:45:12.523Z,1.00
2019-03-28T04:47:44.578Z,1.00
2019-03-28T04:50:16.026Z,77.20
2019-03-28T04:52:47.409Z,99.90
2019-03-28T04:55:19.403Z,86.80
2019-03-28T04:57:50.837Z,96.60
2019-03-28T05:00:22.589Z,84.30
2019-03-28T05:02:54.072Z,99.90
2019-03-28T05:05:25.467Z,99.90
2019-03-28T05:07:56.959Z,90.30
2019-03-28T05:10:28.352Z,99.90
2019-03-28T05:13:00.110Z,99.90
2019-03-28T05:15:32.155Z,99.90
2019-03-28T05:18:03.888Z,1.00
2019-03-28T05:20:35.279Z,99.90
2019-03-28T05:23:07.090Z,99.90
2019-03-28T05:25:39.205Z,1.00
2019-03-28T05:28:10.606Z,99.90
2019-03-28T05:30:43.243Z,99.90
2019-03-28T05:33:14.755Z,33.00
2019-03-28T05:35:46.853Z,99.90
2019-03-28T05:38:18.830Z,1.00
2019-03-28T05:40:50.326Z,1.00
2019-03-28T05:43:22.055Z,1.00
2019-03-28T05:45:53.540Z,82.40
2019-03-28T05:48:25.284Z,1.00
2019-03-28T05:50:56.749Z,99.90
2019-03-28T05:53:28.130Z,99.90
2019-03-28T05:55:59.660Z,99.90
2019-03-28T05:58:31.493Z,1.00
2019-03-28T06:01:02.911Z,1.00
2019-03-28T06:03:34.640Z,99.00
2019-03-28T06:06:06.053Z,99.90
2019-03-28T06:08:38.102Z,99.90
2019-03-28T06:11:09.655Z,99.90
2019-03-28T06:13:41.016Z,99.90
2019-03-28T06:16:12.813Z,99.90
2019-03-28T06:18:44.710Z,99.90
2019-03-28T06:21:16.225Z,99.90
2019-03-28T06:23:48.015Z,99.90
2019-03-28T06:26:19.926Z,99.90
2019-03-28T06:28:51.455Z,99.90
2019-03-28T06:31:23.027Z,1.00
2019-03-28T06:33:54.755Z,1.00
2019-03-28T06:36:26.816Z,1.00
2019-03-28T06:38:58.399Z,1.00
2019-03-28T06:41:29.929Z,1.00
2019-03-28T06:44:01.704Z,1.00
2019-03-28T06:46:33.569Z,1.00
2019-03-28T06:49:04.935Z,1.00
2019-03-28T06:51:36.763Z,1.00
2019-03-28T06:54:08.875Z,99.90
2019-03-28T06:56:40.276Z,99.90
2019-03-28T06:59:11.734Z,99.90
2019-03-28T07:01:43.418Z,99.90
2019-03-28T07:04:14.823Z,99.90
2019-03-28T07:06:46.628Z,73.10
2019-03-28T07:09:18.396Z,93.20
2019-03-28T07:11:50.001Z,99.90
2019-03-28T07:14:21.462Z,44.80
2019-03-28T07:16:52.871Z,1.00
2019-03-28T07:19:24.701Z,1.00
2019-03-28T07:21:56.769Z,1.00
2019-03-28T07:24:28.173Z,1.00
2019-03-28T07:26:59.563Z,1.00
2019-03-28T07:29:30.959Z,1.00
2019-03-28T07:32:02.668Z,1.00
2019-03-28T07:34:34.836Z,1.00
2019-03-28T07:37:06.311Z,1.00
2019-03-28T07:39:37.709Z,99.90
2019-03-28T07:42:09.285Z,99.90
2019-03-28T07:44:40.787Z,99.90
2019-03-28T07:47:12.100Z,99.90
2019-03-28T07:49:43.944Z,99.90
2019-03-28T07:52:15.347Z,99.90
2019-03-28T07:54:48.889Z,99.90
2019-03-28T07:57:20.019Z,99.90
2019-03-28T08:00:03.475Z,99.90
2019-03-28T08:02:24.553Z,99.90
2019-03-28T08:04:55.969Z,99.90
2019-03-28T08:07:28.135Z,99.90
2019-03-28T08:09:59.627Z,99.90
2019-03-28T08:12:31.003Z,99.90
2019-03-28T08:15:03.526Z,99.90
2019-03-28T08:17:35.253Z,99.90
2019-03-28T08:20:09.952Z,99.90
2019-03-28T08:22:41.783Z,99.90
2019-03-28T08:25:14.426Z,99.90
2019-03-28T08:27:45.807Z,99.90
2019-03-28T08:30:19.719Z,99.90
2019-03-28T08:32:51.354Z,99.90
2019-03-28T08:35:23.170Z,99.90
2019-03-28T08:37:55.171Z,99.90
2019-03-28T08:40:41.365Z,99.90
2019-03-28T08:43:13.013Z,99.90
2019-03-28T08:45:44.513Z,99.90
2019-03-28T08:48:16.039Z,99.90
2019-03-28T08:50:47.453Z,99.90
2019-03-28T08:53:18.834Z,99.90
2019-03-28T08:55:50.322Z,99.90
2019-03-28T08:58:21.802Z,99.90
2019-03-28T09:00:53.622Z,99.90
2019-03-28T09:03:25.026Z,99.90
2019-03-28T09:05:56.807Z,99.90
2019-03-28T09:08:28.740Z,99.90
2019-03-28T09:11:00.529Z,99.90
2019-03-28T09:13:31.968Z,99.90
2019-03-28T09:16:04.122Z,99.90
2019-03-28T09:18:36.139Z,99.90
2019-03-28T09:21:08.024Z,99.90
2019-03-28T09:23:39.445Z,99.90
2019-03-28T09:26:10.866Z,99.90
2019-03-28T09:28:42.311Z,99.90
2019-03-28T09:31:19.708Z,99.90
2019-03-28T09:33:46.902Z,99.90
2019-03-28T09:36:18.686Z,99.90
2019-03-28T09:38:50.074Z,99.90
2019-03-28T09:41:21.551Z,99.90
2019-03-28T09:43:55.477Z,99.90
2019-03-28T09:46:26.493Z,99.90
2019-03-28T09:48:58.014Z,99.90
2019-03-28T09:51:29.769Z,99.90
2019-03-28T09:54:02.690Z,99.90
2019-03-28T09:56:34.246Z,99.90
2019-03-28T09:59:05.659Z,99.90
2019-03-28T10:01:37.549Z,99.90
2019-03-28T10:04:08.980Z,99.90
2019-03-28T10:06:40.370Z,99.90
2019-03-28T10:09:11.764Z,99.90
2019-03-28T10:11:43.640Z,99.90
2019-03-28T10:14:15.033Z,99.90
2019-03-28T10:16:46.562Z,99.90
2019-03-28T10:19:18.286Z,99.90
2019-03-28T10:21:50.502Z,99.90
2019-03-28T10:24:21.903Z,99.90
2019-03-28T10:26:53.785Z,99.90
2019-03-28T10:29:25.179Z,99.90
2019-03-28T10:31:57.182Z,99.90
2019-03-28T10:34:29.077Z,99.90
2019-03-28T10:37:00.900Z,99.90
2019-03-28T10:39:32.812Z,99.90
2019-03-28T10:42:05.261Z,99.90
2019-03-28T10:44:36.632Z,99.90
2019-03-28T10:47:08.180Z,99.90
2019-03-28T10:49:39.735Z,99.90
2019-03-28T10:52:12.172Z,99.90
2019-03-28T10:54:43.757Z,99.90
2019-03-28T10:57:28.980Z,99.90
2019-03-28T10:59:48.818Z,99.90
2019-03-28T11:02:20.278Z,99.90
2019-03-28T11:04:51.920Z,99.90
2019-03-28T11:07:23.476Z,99.90
2019-03-28T11:09:55.357Z,99.90
2019-03-28T11:12:26.990Z,99.90
2019-03-28T11:14:58.815Z,99.90
2019-03-28T11:17:30.399Z,99.90
2019-03-28T11:20:02.780Z,99.90
2019-03-28T11:22:34.516Z,99.90
2019-03-28T11:25:06.698Z,99.90
2019-03-28T11:27:38.153Z,99.90
2019-03-28T11:30:12.440Z,99.90
2019-03-28T11:32:44.880Z,99.90
2019-03-28T11:35:16.493Z,99.90
2019-03-28T11:37:48.357Z,99.90
2019-03-28T11:40:20.314Z,99.90
2019-03-28T11:42:52.245Z,99.90
2019-03-28T11:45:26.836Z,99.90
2019-03-28T11:47:56.995Z,99.90
2019-03-28T11:50:28.581Z,99.90
2019-03-28T11:53:00.370Z,99.90
2019-03-28T11:55:31.988Z,99.90
2019-03-28T11:58:03.439Z,99.90
2019-03-28T12:00:34.890Z,99.90
2019-03-28T12:03:06.980Z,99.90
2019-03-28T12:05:39.351Z,99.90
2019-03-28T12:08:10.945Z,99.90
2019-03-28T12:10:42.535Z,99.90
2019-03-28T12:13:14.362Z,99.90
2019-03-28T12:15:45.851Z,99.90
2019-03-28T12:18:17.274Z,99.90
2019-03-28T12:20:48.847Z,99.90
2019-03-28T12:23:20.401Z,99.90
2019-03-28T12:25:51.878Z,99.90
2019-03-28T12:28:23.642Z,99.90
2019-03-28T12:30:55.569Z,99.90
2019-03-28T12:33:27.022Z,99.90
2019-03-28T12:35:58.581Z,99.90
2019-03-28T12:38:30.447Z,99.90
2019-03-28T12:41:02.092Z,99.90
2019-03-28T12:43:33.518Z,99.90
2019-03-28T12:46:05.092Z,99.90
2019-03-28T12:48:36.931Z,99.90
2019-03-28T12:51:08.506Z,99.90
2019-03-28T12:53:39.953Z,99.90
2019-03-28T12:56:12.346Z,99.90
2019-03-28T12:58:44.026Z,99.90
2019-03-28T13:01:15.549Z,99.90
2019-03-28T13:03:47.016Z,99.90
2019-03-28T13:06:18.439Z,99.90
2019-03-28T13:08:50.305Z,99.90
2019-03-28T13:11:22.134Z,99.90
2019-03-28T13:13:53.629Z,99.90
2019-03-28T13:16:26.107Z,99.90
2019-03-28T13:18:57.655Z,99.90
2019-03-28T13:21:29.479Z,99.90
2019-03-28T13:24:01.216Z,99.90
2019-03-28T13:26:33.349Z,99.90
2019-03-28T13:29:04.951Z,99.90
2019-03-28T13:31:36.832Z,99.90
2019-03-28T13:34:08.281Z,99.90
2019-03-28T13:36:39.734Z,99.90
2019-03-28T13:39:11.231Z,99.90
2019-03-28T13:41:44.532Z,99.90
2019-03-28T13:44:16.568Z,99.90
2019-03-28T13:46:48.404Z,99.90
2019-03-28T13:49:19.854Z,99.90
2019-03-28T13:51:51.610Z,99.90
2019-03-28T13:54:23.579Z,99.90
2019-03-28T13:56:55.002Z,99.90
2019-03-28T13:59:26.969Z,99.90
2019-03-28T14:01:58.440Z,99.90
2019-03-28T14:04:29.994Z,99.90
2019-03-28T14:07:02.055Z,99.90
2019-03-28T14:09:33.916Z,99.90
2019-03-28T14:12:05.375Z,99.90
2019-03-28T14:14:39.875Z,99.90
2019-03-28T14:17:10.110Z,99.90
2019-03-28T14:19:41.662Z,99.90
2019-03-28T14:22:13.115Z,99.90
2019-03-28T14:24:45.071Z,99.90
2019-03-28T14:27:16.937Z,99.90
2019-03-28T14:29:48.393Z,99.90
2019-03-28T14:32:20.658Z,99.90
2019-03-28T14:34:52.211Z,99.90
2019-03-28T14:37:23.662Z,99.90
2019-03-28T14:39:55.622Z,99.90
2019-03-28T14:42:27.346Z,99.90
2019-03-28T14:44:59.271Z,99.90
2019-03-28T14:47:31.101Z,99.90
2019-03-28T14:50:03.090Z,99.90
2019-03-28T14:52:35.325Z,99.90
2019-03-28T14:55:07.503Z,99.90
2019-03-28T14:57:39.462Z,99.90
2019-03-28T15:00:24.393Z,99.90
2019-03-28T15:02:56.513Z,99.90
2019-03-28T15:05:28.645Z,99.90
2019-03-28T15:08:00.115Z,99.90
2019-03-28T15:10:31.587Z,99.90
2019-03-28T15:13:03.119Z,99.90
2019-03-28T15:15:34.575Z,99.90
2019-03-28T15:18:06.074Z,99.90
2019-03-28T15:20:37.677Z,99.90
2019-03-28T15:23:09.223Z,99.90
2019-03-28T15:25:40.779Z,99.90
2019-03-28T15:28:12.635Z,99.90
2019-03-28T15:30:44.197Z,99.90
2019-03-28T15:33:16.158Z,99.90
2019-03-28T15:35:48.014Z,99.90
2019-03-28T15:38:19.581Z,99.90
2019-03-28T15:40:51.125Z,99.90
2019-03-28T15:43:22.984Z,99.90
2019-03-28T15:45:54.549Z,99.90
2019-03-28T15:48:25.989Z,99.90
2019-03-28T15:50:57.976Z,99.90
2019-03-28T15:53:29.603Z,99.90
2019-03-28T15:56:01.557Z,99.90
2019-03-28T15:58:33.009Z,99.90
2019-03-28T16:01:04.882Z,99.90
2019-03-28T16:03:36.837Z,99.90
2019-03-28T16:06:08.383Z,99.90
2019-03-28T16:08:39.937Z,99.90
2019-03-28T16:11:11.493Z,99.90
2019-03-28T16:13:43.764Z,99.90
2019-03-28T16:16:15.312Z,99.90
2019-03-28T16:18:46.867Z,99.90
2019-03-28T16:21:19.511Z,99.90
2019-03-28T16:23:51.187Z,99.90
2019-03-28T16:26:22.911Z,99.90
2019-03-28T16:28:56.461Z,99.90
2019-03-28T16:31:28.339Z,99.90
2019-03-28T16:34:06.841Z,99.90
2019-03-28T16:36:33.215Z,99.90
2019-03-28T16:39:06.329Z,99.90
2019-03-28T16:41:37.950Z,99.90
2019-03-28T16:44:09.371Z,99.90
2019-03-28T16:46:41.011Z,99.90
2019-03-28T16:49:12.796Z,99.90
2019-03-28T16:51:44.425Z,99.90
2019-03-28T16:54:16.186Z,99.90
2019-03-28T16:56:48.106Z,99.90
2019-03-28T16:59:19.899Z,99.90
2019-03-28T17:01:51.457Z,99.90
2019-03-28T17:04:23.227Z,99.90
2019-03-28T17:06:55.103Z,99.90
2019-03-28T17:09:27.787Z,99.90
2019-03-28T17:11:59.711Z,99.90
2019-03-28T17:14:31.233Z,99.90
2019-03-28T17:17:03.156Z,99.90
2019-03-28T17:19:34.986Z,99.90
2019-03-28T17:22:09.390Z,99.90
2019-03-28T17:24:39.639Z,99.90
2019-03-28T17:27:11.092Z,99.90
2019-03-28T17:29:42.928Z,99.90
2019-03-28T17:32:14.797Z,99.90
2019-03-28T17:34:46.204Z,99.90
2019-03-28T17:37:17.718Z,99.90
2019-03-28T17:39:49.252Z,99.90
2019-03-28T17:42:20.704Z,99.90
2019-03-28T17:44:52.134Z,99.90
2019-03-28T17:47:23.607Z,99.90
2019-03-28T17:49:55.034Z,99.90
2019-03-28T17:52:27.721Z,99.90
2019-03-28T17:54:59.697Z,99.90
2019-03-28T17:57:31.169Z,99.90
2019-03-28T18:00:02.666Z,99.90
2019-03-28T18:02:34.560Z,99.90
2019-03-28T18:05:09.561Z,99.90
2019-03-28T18:07:39.586Z,99.90
2019-03-28T18:10:11.871Z,99.90
2019-03-28T18:12:43.326Z,99.90
2019-03-28T18:15:15.677Z,99.90
2019-03-28T18:17:47.872Z,99.90
2019-03-28T18:20:19.628Z,99.90
2019-03-28T18:22:51.592Z,99.90
2019-03-28T18:25:23.449Z,99.90
2019-03-28T18:27:55.222Z,99.90
2019-03-28T18:30:27.143Z,99.90
2019-03-28T18:32:58.571Z,99.90
2019-03-28T18:35:30.150Z,99.90
2019-03-28T18:38:01.954Z,99.90
2019-03-28T18:40:33.587Z,99.90
2019-03-28T18:43:05.138Z,99.90
2019-03-28T18:45:37.006Z,99.90
2019-03-28T18:48:09.275Z,99.90
2019-03-28T18:50:41.471Z,99.90
2019-03-28T18:53:13.090Z,99.90
2019-03-28T18:55:44.644Z,99.90
2019-03-28T18:58:16.098Z,99.90
2019-03-28T19:00:48.439Z,99.90
2019-03-28T19:03:20.129Z,99.90
2019-03-28T19:05:51.599Z,99.90
2019-03-28T19:08:23.843Z,99.90
2019-03-28T19:10:55.700Z,99.90
2019-03-28T19:13:28.198Z,1.00
2019-03-28T19:15:59.732Z,99.90
2019-03-28T19:18:31.509Z,99.90
2019-03-28T19:21:03.344Z,1.00
2019-03-28T19:23:35.206Z,1.00
2019-03-28T19:26:06.986Z,99.90
2019-03-28T19:28:39.232Z,99.90
2019-03-28T19:31:10.709Z,1.00
2019-03-28T19:33:42.225Z,1.00
2019-03-28T19:36:14.408Z,1.00
2019-03-28T19:38:46.057Z,1.00
2019-03-28T19:41:17.593Z,1.00
2019-03-28T19:43:49.910Z,1.00
2019-03-28T19:46:22.068Z,1.00
2019-03-28T19:48:54.243Z,1.00
2019-03-28T19:51:28.315Z,1.00
2019-03-28T19:53:59.760Z,1.00
2019-03-28T19:56:31.737Z,1.00
2019-03-28T19:59:03.421Z,1.00
2019-03-28T20:01:35.753Z,44.30
2019-03-28T20:04:07.423Z,1.00
2019-03-28T20:06:38.972Z,1.00
2019-03-28T20:09:16.392Z,26.90
2019-03-28T20:11:44.605Z,4.00
2019-03-28T20:14:16.121Z,16.60
2019-03-28T20:16:47.688Z,40.20
2019-03-28T20:19:19.426Z,89.30
2019-03-28T20:21:51.270Z,99.90
2019-03-28T20:24:23.762Z,99.90
2019-03-28T20:26:56.245Z,99.90
2019-03-28T20:29:28.099Z,95.10
2019-03-28T20:32:00.170Z,97.90
2019-03-28T20:34:31.989Z,99.90
2019-03-28T20:37:04.047Z,99.90
2019-03-28T20:39:35.722Z,99.90
2019-03-28T20:42:08.807Z,99.90
2019-03-28T20:44:40.793Z,99.90
2019-03-28T20:47:13.335Z,99.90
2019-03-28T20:49:46.870Z,99.90
2019-03-28T20:52:19.427Z,1.00
2019-03-28T20:54:51.310Z,1.00
2019-03-28T20:57:23.141Z,1.00
2019-03-28T20:59:54.901Z,1.00
2019-03-28T21:02:27.477Z,1.00
2019-03-28T21:05:00.780Z,1.00
2019-03-28T21:07:32.533Z,1.00
2019-03-28T21:10:04.079Z,1.00
2019-03-28T21:12:35.738Z,1.00
2019-03-28T21:15:08.411Z,1.00
2019-03-28T21:17:40.067Z,1.00
2019-03-28T21:20:12.335Z,1.00
2019-03-28T21:22:44.463Z,1.00
2019-03-28T21:25:16.367Z,1.00
2019-03-28T21:27:48.793Z,1.00
2019-03-28T21:30:20.722Z,1.00
2019-03-28T21:32:55.833Z,1.00
2019-03-28T21:35:26.083Z,1.00
2019-03-28T21:37:57.731Z,1.00
2019-03-28T21:40:29.217Z,1.00
2019-03-28T21:43:00.614Z,1.00
2019-03-28T21:45:32.391Z,1.00
2019-03-28T21:48:04.540Z,1.00
2019-03-28T21:50:36.108Z,1.00
2019-03-28T21:53:07.978Z,1.00
2019-03-28T21:55:39.465Z,1.00
2019-03-28T21:58:11.758Z,1.00
2019-03-28T22:00:43.250Z,1.00
2019-03-28T22:03:14.868Z,1.00
2019-03-28T22:05:46.277Z,1.00
2019-03-28T22:08:17.833Z,1.00
2019-03-28T22:10:49.423Z,1.00
2019-03-28T22:13:21.272Z,1.00
2019-03-28T22:15:53.615Z,99.90
2019-03-28T22:18:25.354Z,99.90
2019-03-28T22:20:57.198Z,99.90
2019-03-28T22:23:28.729Z,99.90
2019-03-28T22:26:01.068Z,99.90
2019-03-28T22:28:32.525Z,99.90
2019-03-28T22:31:04.305Z,99.90
2019-03-28T22:33:36.943Z,1.00
2019-03-28T22:36:08.699Z,1.00
2019-03-28T22:38:41.911Z,13.40
2019-03-28T22:41:14.124Z,99.90
2019-03-28T22:43:45.873Z,99.90
2019-03-28T22:46:17.720Z,99.90
2019-03-28T22:48:50.033Z,99.90
2019-03-28T22:51:21.935Z,99.90
2019-03-28T22:53:53.444Z,99.90
2019-03-28T22:56:25.053Z,99.90
2019-03-28T22:58:57.477Z,1.00
2019-03-28T23:01:29.389Z,1.00
2019-03-28T23:04:01.459Z,1.00
2019-03-28T23:06:33.338Z,1.00
2019-03-28T23:09:05.598Z,68.90
2019-03-28T23:11:40.292Z,73.30
2019-03-28T23:14:10.429Z,1.00
2019-03-28T23:16:41.867Z,1.00
2019-03-28T23:19:13.254Z,99.90
2019-03-28T23:21:44.761Z,99.90
2019-03-28T23:24:16.182Z,99.90
2019-03-28T23:26:47.589Z,99.90
2019-03-28T23:29:19.003Z,99.90
2019-03-28T23:31:51.338Z,99.90
2019-03-28T23:34:22.919Z,99.90
2019-03-28T23:36:54.389Z,99.90
2019-03-28T23:39:25.786Z,99.90
2019-03-28T23:41:57.276Z,99.90
2019-03-28T23:44:29.008Z,1.00
2019-03-28T23:47:00.789Z,38.60
2019-03-28T23:49:32.542Z,99.90
2019-03-28T23:52:04.336Z,99.90
2019-03-28T23:54:36.232Z,99.90
2019-03-28T23:57:07.653Z,99.90
2019-03-28T23:59:39.269Z,99.90
